createdAt,value
2018-03-30T00:00:17.707Z,20.13
2018-03-30T00:01:31.988Z,20.10
2018-03-30T00:02:34.484Z,20.07
2018-03-30T00:03:36.966Z,20.05
2018-03-30T00:04:39.457Z,20.03
2018-03-30T00:05:41.940Z,20.03
2018-03-30T00:06:44.434Z,20.03
2018-03-30T00:07:46.932Z,20.06
2018-03-30T00:08:49.437Z,20.12
2018-03-30T00:09:56.910Z,20.17
2018-03-30T00:10:59.429Z,20.24
2018-03-30T00:12:01.922Z,20.30
2018-03-30T00:13:04.405Z,20.35
2018-03-30T00:14:06.906Z,20.42
2018-03-30T00:15:09.390Z,20.47
2018-03-30T00:16:11.894Z,20.49
2018-03-30T00:17:14.410Z,20.51
2018-03-30T00:18:16.914Z,20.53
2018-03-30T00:19:19.410Z,20.55
2018-03-30T00:20:21.901Z,20.55
2018-03-30T00:21:24.420Z,20.56
2018-03-30T00:22:26.892Z,20.56
2018-03-30T00:23:29.376Z,20.55
2018-03-30T00:24:31.859Z,20.54
2018-03-30T00:25:34.328Z,20.53
2018-03-30T00:26:36.850Z,20.54
2018-03-30T00:27:39.367Z,20.52
2018-03-30T00:28:41.857Z,20.49
2018-03-30T00:29:44.324Z,20.48
2018-03-30T00:30:46.806Z,20.46
2018-03-30T00:31:49.315Z,20.44
2018-03-30T00:32:51.802Z,20.41
2018-03-30T00:33:54.282Z,20.38
2018-03-30T00:34:56.756Z,20.37
2018-03-30T00:35:59.221Z,20.35
2018-03-30T00:37:01.725Z,20.33
2018-03-30T00:38:04.243Z,20.32
2018-03-30T00:39:06.747Z,20.29
2018-03-30T00:40:09.234Z,20.27
2018-03-30T00:41:11.831Z,20.25
2018-03-30T00:42:14.320Z,20.23
2018-03-30T00:43:16.789Z,20.21
2018-03-30T00:44:19.283Z,20.19
2018-03-30T00:45:22.672Z,20.17
2018-03-30T00:46:25.158Z,20.16
2018-03-30T00:47:27.681Z,20.14
2018-03-30T00:48:30.172Z,20.12
2018-03-30T00:49:32.654Z,20.13
2018-03-30T00:50:35.139Z,20.15
2018-03-30T00:51:37.628Z,20.20
2018-03-30T00:52:40.114Z,20.27
2018-03-30T00:53:51.536Z,20.33
2018-03-30T00:54:54.027Z,20.40
2018-03-30T00:55:56.510Z,20.45
2018-03-30T00:56:59.013Z,20.50
2018-03-30T00:58:01.527Z,20.54
2018-03-30T00:59:03.997Z,20.57
2018-03-30T01:00:06.460Z,20.60
2018-03-30T01:01:08.945Z,20.60
2018-03-30T01:02:11.440Z,20.61
2018-03-30T01:03:13.942Z,20.62
2018-03-30T01:04:16.545Z,20.62
2018-03-30T01:05:19.061Z,20.60
2018-03-30T01:06:21.561Z,20.60
2018-03-30T01:07:24.049Z,20.58
2018-03-30T01:08:26.584Z,20.57
2018-03-30T01:09:29.066Z,20.56
2018-03-30T01:10:31.573Z,20.54
2018-03-30T01:11:34.067Z,20.53
2018-03-30T01:12:36.558Z,20.51
2018-03-30T01:13:39.062Z,20.50
2018-03-30T01:14:41.572Z,20.48
2018-03-30T01:15:44.108Z,20.46
2018-03-30T01:16:46.609Z,20.45
2018-03-30T01:17:49.107Z,20.42
2018-03-30T01:18:51.628Z,20.40
2018-03-30T01:19:54.122Z,20.39
2018-03-30T01:20:56.610Z,20.37
2018-03-30T01:21:59.111Z,20.34
2018-03-30T01:23:01.590Z,20.33
2018-03-30T01:24:04.100Z,20.31
2018-03-30T01:25:06.582Z,20.29
2018-03-30T01:26:09.048Z,20.27
2018-03-30T01:27:11.534Z,20.27
2018-03-30T01:28:14.033Z,20.24
2018-03-30T01:29:16.517Z,20.22
2018-03-30T01:30:19.014Z,20.22
2018-03-30T01:31:21.488Z,20.20
2018-03-30T01:32:23.957Z,20.20
2018-03-30T01:33:26.481Z,20.18
2018-03-30T01:34:28.980Z,20.17
2018-03-30T01:35:31.470Z,20.16
2018-03-30T01:36:33.952Z,20.16
2018-03-30T01:37:36.436Z,20.14
2018-03-30T01:38:38.961Z,20.12
2018-03-30T01:39:41.455Z,20.11
2018-03-30T01:40:43.951Z,20.09
2018-03-30T01:41:46.424Z,20.08
2018-03-30T01:42:48.905Z,20.06
2018-03-30T01:43:51.410Z,20.05
2018-03-30T01:44:53.895Z,20.03
2018-03-30T01:45:56.367Z,20.01
2018-03-30T01:46:58.854Z,20.00
2018-03-30T01:48:01.353Z,19.98
2018-03-30T01:49:03.873Z,19.97
2018-03-30T01:50:06.359Z,19.96
2018-03-30T01:51:08.828Z,19.94
2018-03-30T01:52:11.311Z,19.93
2018-03-30T01:53:13.831Z,19.91
2018-03-30T01:54:16.316Z,19.90
2018-03-30T01:55:18.812Z,19.88
2018-03-30T01:56:21.299Z,19.88
2018-03-30T01:57:23.782Z,19.86
2018-03-30T01:58:26.281Z,19.84
2018-03-30T01:59:28.796Z,19.83
2018-03-30T02:00:31.292Z,19.82
2018-03-30T02:01:33.854Z,19.81
2018-03-30T02:02:36.363Z,19.79
2018-03-30T02:03:38.860Z,19.78
2018-03-30T02:04:41.348Z,19.77
2018-03-30T02:05:43.831Z,19.75
2018-03-30T02:06:46.329Z,19.74
2018-03-30T02:07:48.813Z,19.74
2018-03-30T02:08:51.327Z,19.73
2018-03-30T02:09:53.827Z,19.72
2018-03-30T02:10:56.329Z,19.72
2018-03-30T02:11:58.818Z,19.71
2018-03-30T02:13:01.302Z,19.71
2018-03-30T02:14:03.797Z,19.70
2018-03-30T02:15:06.321Z,19.69
2018-03-30T02:16:09.037Z,19.69
2018-03-30T02:17:11.540Z,19.67
2018-03-30T02:18:14.008Z,19.67
2018-03-30T02:19:16.509Z,19.65
2018-03-30T02:20:19.007Z,19.64
2018-03-30T02:21:21.503Z,19.64
2018-03-30T02:22:24.008Z,19.62
2018-03-30T02:23:26.490Z,19.62
2018-03-30T02:24:28.995Z,19.61
2018-03-30T02:25:31.495Z,19.60
2018-03-30T02:26:34.008Z,19.60
2018-03-30T02:27:36.479Z,19.59
2018-03-30T02:28:38.944Z,19.58
2018-03-30T02:29:41.426Z,19.58
2018-03-30T02:30:43.941Z,19.57
2018-03-30T02:31:46.473Z,19.56
2018-03-30T02:32:48.976Z,19.55
2018-03-30T02:33:51.476Z,19.55
2018-03-30T02:34:53.940Z,19.53
2018-03-30T02:35:56.457Z,19.53
2018-03-30T02:36:58.929Z,19.53
2018-03-30T02:38:01.436Z,19.53
2018-03-30T02:39:03.909Z,19.52
2018-03-30T02:40:06.395Z,19.51
2018-03-30T02:41:08.917Z,19.51
2018-03-30T02:42:11.406Z,19.50
2018-03-30T02:43:13.886Z,19.50
2018-03-30T02:44:16.387Z,19.49
2018-03-30T02:45:18.893Z,19.48
2018-03-30T02:46:21.402Z,19.47
2018-03-30T02:47:23.891Z,19.47
2018-03-30T02:48:26.416Z,19.45
2018-03-30T02:49:28.907Z,19.44
2018-03-30T02:50:31.393Z,19.43
2018-03-30T02:51:33.898Z,19.43
2018-03-30T02:52:36.386Z,19.42
2018-03-30T02:53:38.878Z,19.41
2018-03-30T02:54:41.386Z,19.40
2018-03-30T02:55:43.883Z,19.39
2018-03-30T02:56:46.373Z,19.38
2018-03-30T02:57:48.872Z,19.36
2018-03-30T02:58:51.366Z,19.35
2018-03-30T02:59:53.840Z,19.33
2018-03-30T03:00:56.330Z,19.32
2018-03-30T03:01:58.847Z,19.31
2018-03-30T03:03:01.321Z,19.29
2018-03-30T03:04:03.882Z,19.28
2018-03-30T03:05:06.375Z,19.28
2018-03-30T03:06:08.881Z,19.27
2018-03-30T03:07:11.395Z,19.26
2018-03-30T03:08:13.886Z,19.24
2018-03-30T03:09:16.380Z,19.23
2018-03-30T03:10:18.876Z,19.23
2018-03-30T03:11:21.383Z,19.21
2018-03-30T03:12:23.872Z,19.21
2018-03-30T03:13:26.355Z,19.20
2018-03-30T03:14:28.853Z,19.19
2018-03-30T03:15:31.321Z,19.19
2018-03-30T03:16:33.899Z,19.19
2018-03-30T03:17:36.388Z,19.18
2018-03-30T03:18:38.918Z,19.18
2018-03-30T03:19:41.404Z,19.17
2018-03-30T03:20:43.911Z,19.16
2018-03-30T03:21:46.395Z,19.16
2018-03-30T03:22:48.915Z,19.15
2018-03-30T03:23:51.388Z,19.14
2018-03-30T03:24:53.866Z,19.14
2018-03-30T03:25:56.354Z,19.13
2018-03-30T03:26:58.839Z,19.13
2018-03-30T03:28:01.304Z,19.11
2018-03-30T03:29:03.795Z,19.10
2018-03-30T03:30:06.281Z,19.10
2018-03-30T03:31:08.824Z,19.09
2018-03-30T03:32:11.340Z,19.09
2018-03-30T03:33:13.830Z,19.08
2018-03-30T03:34:16.328Z,19.08
2018-03-30T03:35:18.814Z,19.07
2018-03-30T03:36:21.313Z,19.06
2018-03-30T03:37:23.814Z,19.06
2018-03-30T03:38:26.290Z,19.05
2018-03-30T03:39:28.775Z,19.05
2018-03-30T03:40:31.275Z,19.05
2018-03-30T03:41:33.766Z,19.05
2018-03-30T03:42:36.252Z,19.04
2018-03-30T03:43:38.725Z,19.01
2018-03-30T03:44:41.225Z,19.01
2018-03-30T03:45:43.720Z,19.00
2018-03-30T03:46:46.198Z,18.99
2018-03-30T03:47:48.692Z,18.99
2018-03-30T03:48:51.176Z,18.98
2018-03-30T03:49:53.677Z,18.97
2018-03-30T03:50:56.174Z,18.96
2018-03-30T03:51:58.665Z,18.95
2018-03-30T03:53:01.166Z,18.95
2018-03-30T03:54:03.659Z,18.94
2018-03-30T03:55:06.155Z,18.93
2018-03-30T03:56:08.666Z,18.92
2018-03-30T03:57:11.142Z,18.91
2018-03-30T03:58:13.628Z,18.91
2018-03-30T03:59:16.104Z,18.90
2018-03-30T04:00:18.683Z,18.89
2018-03-30T04:01:21.317Z,18.88
2018-03-30T04:02:23.819Z,18.88
2018-03-30T04:03:26.319Z,18.87
2018-03-30T04:04:28.806Z,18.86
2018-03-30T04:05:31.272Z,18.85
2018-03-30T04:06:33.762Z,18.85
2018-03-30T04:07:36.257Z,18.84
2018-03-30T04:08:38.764Z,18.82
2018-03-30T04:09:41.252Z,18.82
2018-03-30T04:10:43.724Z,18.81
2018-03-30T04:11:46.288Z,18.80
2018-03-30T04:12:48.795Z,18.81
2018-03-30T04:13:51.312Z,18.79
2018-03-30T04:14:53.813Z,18.78
2018-03-30T04:15:56.312Z,18.77
2018-03-30T04:16:58.823Z,18.76
2018-03-30T04:18:01.319Z,18.75
2018-03-30T04:19:03.920Z,18.75
2018-03-30T04:20:06.424Z,18.74
2018-03-30T04:21:08.910Z,18.73
2018-03-30T04:22:11.409Z,18.72
2018-03-30T04:23:13.880Z,18.72
2018-03-30T04:24:16.378Z,18.71
2018-03-30T04:25:18.875Z,18.71
2018-03-30T04:26:21.360Z,18.71
2018-03-30T04:27:30.545Z,18.71
2018-03-30T04:28:33.047Z,18.69
2018-03-30T04:29:35.546Z,18.69
2018-03-30T04:30:38.049Z,18.68
2018-03-30T04:31:40.535Z,18.68
2018-03-30T04:32:43.141Z,18.67
2018-03-30T04:33:45.646Z,18.66
2018-03-30T04:34:48.192Z,18.66
2018-03-30T04:35:50.826Z,18.65
2018-03-30T04:36:53.332Z,18.65
2018-03-30T04:37:55.834Z,18.64
2018-03-30T04:38:58.311Z,18.64
2018-03-30T04:40:00.838Z,18.64
2018-03-30T04:41:03.337Z,18.64
2018-03-30T04:42:05.826Z,18.64
2018-03-30T04:43:08.318Z,18.63
2018-03-30T04:44:10.828Z,18.64
2018-03-30T04:45:13.337Z,18.64
2018-03-30T04:46:15.841Z,18.64
2018-03-30T04:47:18.336Z,18.63
2018-03-30T04:48:20.819Z,18.63
2018-03-30T04:49:23.292Z,18.62
2018-03-30T04:50:25.784Z,18.62
2018-03-30T04:51:28.282Z,18.62
2018-03-30T04:52:30.828Z,18.61
2018-03-30T04:53:33.336Z,18.62
2018-03-30T04:54:35.823Z,18.61
2018-03-30T04:55:38.337Z,18.61
2018-03-30T04:56:40.825Z,18.61
2018-03-30T04:57:43.310Z,18.61
2018-03-30T04:58:45.794Z,18.60
2018-03-30T04:59:48.273Z,18.59
2018-03-30T05:00:50.794Z,18.60
2018-03-30T05:01:53.287Z,18.60
2018-03-30T05:02:55.759Z,18.59
2018-03-30T05:03:58.246Z,18.59
2018-03-30T05:05:00.773Z,18.58
2018-03-30T05:06:03.252Z,18.58
2018-03-30T05:07:05.760Z,18.57
2018-03-30T05:08:08.250Z,18.57
2018-03-30T05:09:10.734Z,18.56
2018-03-30T05:10:13.258Z,18.56
2018-03-30T05:11:15.753Z,18.56
2018-03-30T05:12:18.252Z,18.56
2018-03-30T05:13:20.729Z,18.55
2018-03-30T05:14:23.216Z,18.55
2018-03-30T05:15:25.724Z,18.54
2018-03-30T05:16:28.188Z,18.54
2018-03-30T05:17:30.671Z,18.53
2018-03-30T05:18:33.158Z,18.53
2018-03-30T05:19:35.642Z,18.54
2018-03-30T05:20:38.155Z,18.53
2018-03-30T05:21:40.641Z,18.53
2018-03-30T05:22:43.157Z,18.53
2018-03-30T05:23:45.656Z,18.52
2018-03-30T05:24:48.158Z,18.52
2018-03-30T05:25:50.678Z,18.52
2018-03-30T05:26:53.200Z,18.51
2018-03-30T05:27:55.682Z,18.50
2018-03-30T05:28:58.183Z,18.51
2018-03-30T05:30:00.677Z,18.50
2018-03-30T05:31:03.172Z,18.50
2018-03-30T05:32:05.686Z,18.49
2018-03-30T05:33:08.245Z,18.49
2018-03-30T05:34:10.734Z,18.48
2018-03-30T05:35:13.217Z,18.48
2018-03-30T05:36:15.715Z,18.47
2018-03-30T05:37:18.217Z,18.47
2018-03-30T05:38:20.716Z,18.47
2018-03-30T05:39:23.210Z,18.46
2018-03-30T05:40:25.704Z,18.46
2018-03-30T05:41:28.296Z,18.46
2018-03-30T05:42:30.795Z,18.46
2018-03-30T05:43:33.275Z,18.46
2018-03-30T05:44:35.782Z,18.45
2018-03-30T05:45:38.269Z,18.45
2018-03-30T05:46:40.774Z,18.44
2018-03-30T05:47:43.259Z,18.43
2018-03-30T05:48:45.729Z,18.44
2018-03-30T05:49:48.210Z,18.42
2018-03-30T05:50:50.796Z,18.41
2018-03-30T05:51:53.343Z,18.41
2018-03-30T05:52:55.838Z,18.41
2018-03-30T05:53:58.300Z,18.40
2018-03-30T05:55:00.797Z,18.39
2018-03-30T05:56:03.298Z,18.39
2018-03-30T05:57:05.820Z,18.39
2018-03-30T05:58:08.310Z,18.39
2018-03-30T05:59:10.808Z,18.38
2018-03-30T06:00:13.308Z,18.39
2018-03-30T06:01:15.794Z,18.38
2018-03-30T06:02:18.322Z,18.38
2018-03-30T06:03:20.821Z,18.38
2018-03-30T06:04:23.304Z,18.39
2018-03-30T06:05:25.803Z,18.39
2018-03-30T06:06:28.335Z,18.38
2018-03-30T06:07:30.819Z,18.39
2018-03-30T06:08:33.325Z,18.38
2018-03-30T06:09:35.818Z,18.38
2018-03-30T06:10:38.349Z,18.38
2018-03-30T06:11:40.839Z,18.37
2018-03-30T06:12:43.357Z,18.37
2018-03-30T06:13:45.837Z,18.37
2018-03-30T06:14:48.344Z,18.37
2018-03-30T06:15:50.838Z,18.37
2018-03-30T06:16:53.314Z,18.37
2018-03-30T06:17:55.828Z,18.37
2018-03-30T06:18:58.298Z,18.37
2018-03-30T06:20:00.808Z,18.37
2018-03-30T06:21:03.290Z,18.38
2018-03-30T06:22:05.800Z,18.37
2018-03-30T06:23:08.343Z,18.36
2018-03-30T06:24:10.925Z,18.36
2018-03-30T06:25:13.419Z,18.36
2018-03-30T06:26:15.903Z,18.36
2018-03-30T06:27:18.398Z,18.36
2018-03-30T06:28:20.902Z,18.35
2018-03-30T06:29:23.396Z,18.35
2018-03-30T06:30:25.882Z,18.34
2018-03-30T06:31:28.400Z,18.34
2018-03-30T06:32:30.901Z,18.33
2018-03-30T06:33:33.418Z,18.33
2018-03-30T06:34:35.896Z,18.33
2018-03-30T06:35:38.394Z,18.32
2018-03-30T06:36:40.891Z,18.33
2018-03-30T06:37:43.356Z,18.32
2018-03-30T06:38:45.839Z,18.31
2018-03-30T06:39:48.348Z,18.31
2018-03-30T06:40:50.835Z,18.31
2018-03-30T06:41:53.322Z,18.31
2018-03-30T06:42:55.811Z,18.31
2018-03-30T06:43:58.312Z,18.30
2018-03-30T06:45:00.895Z,18.30
2018-03-30T06:46:03.406Z,18.30
2018-03-30T06:47:05.891Z,18.30
2018-03-30T06:48:08.401Z,18.29
2018-03-30T06:49:10.910Z,18.28
2018-03-30T06:50:13.414Z,18.28
2018-03-30T06:51:15.881Z,18.27
2018-03-30T06:52:18.356Z,18.26
2018-03-30T06:53:20.854Z,18.25
2018-03-30T06:54:23.365Z,18.25
2018-03-30T06:55:25.846Z,18.24
2018-03-30T06:56:28.353Z,18.23
2018-03-30T06:57:30.820Z,18.22
2018-03-30T06:58:33.303Z,18.22
2018-03-30T06:59:35.810Z,18.21
2018-03-30T07:00:38.295Z,18.20
2018-03-30T07:01:40.768Z,18.20
2018-03-30T07:02:43.240Z,18.20
2018-03-30T07:03:45.722Z,18.18
2018-03-30T07:04:48.243Z,18.18
2018-03-30T07:05:50.736Z,18.17
2018-03-30T07:06:53.214Z,18.17
2018-03-30T07:07:55.718Z,18.17
2018-03-30T07:08:58.208Z,18.16
2018-03-30T07:10:00.700Z,18.15
2018-03-30T07:11:03.177Z,18.15
2018-03-30T07:12:05.658Z,18.15
2018-03-30T07:13:08.132Z,18.14
2018-03-30T07:14:10.619Z,18.14
2018-03-30T07:15:13.141Z,18.13
2018-03-30T07:16:15.630Z,18.13
2018-03-30T07:17:18.101Z,18.12
2018-03-30T07:18:20.608Z,18.13
2018-03-30T07:19:23.095Z,18.13
2018-03-30T07:20:25.620Z,18.13
2018-03-30T07:21:28.114Z,18.13
2018-03-30T07:22:30.627Z,18.13
2018-03-30T07:23:33.137Z,18.12
2018-03-30T07:24:35.618Z,18.12
2018-03-30T07:25:38.134Z,18.12
2018-03-30T07:26:40.634Z,18.12
2018-03-30T07:27:43.118Z,18.12
2018-03-30T07:28:45.611Z,18.11
2018-03-30T07:29:48.109Z,18.11
2018-03-30T07:30:50.669Z,18.10
2018-03-30T07:31:53.178Z,18.10
2018-03-30T07:32:55.634Z,18.10
2018-03-30T07:33:58.271Z,18.11
2018-03-30T07:35:00.744Z,18.10
2018-03-30T07:36:03.273Z,18.09
2018-03-30T07:37:05.744Z,18.10
2018-03-30T07:38:08.219Z,18.10
2018-03-30T07:39:10.688Z,18.10
2018-03-30T07:40:13.175Z,18.10
2018-03-30T07:41:15.670Z,18.10
2018-03-30T07:42:18.147Z,18.10
2018-03-30T07:43:20.620Z,18.11
2018-03-30T07:44:23.100Z,18.10
2018-03-30T07:45:25.591Z,18.09
2018-03-30T07:46:28.160Z,18.05
2018-03-30T07:47:30.665Z,18.02
2018-03-30T07:48:33.136Z,17.99
2018-03-30T07:49:35.620Z,17.98
2018-03-30T07:50:38.149Z,17.96
2018-03-30T07:51:40.631Z,17.94
2018-03-30T07:52:43.108Z,17.94
2018-03-30T07:53:45.596Z,17.94
2018-03-30T07:54:48.099Z,17.92
2018-03-30T07:55:50.750Z,17.90
2018-03-30T07:56:53.294Z,17.88
2018-03-30T07:57:55.821Z,17.85
2018-03-30T07:58:58.318Z,17.83
2018-03-30T08:00:00.788Z,17.80
2018-03-30T08:01:03.294Z,17.79
2018-03-30T08:02:05.784Z,17.78
2018-03-30T08:03:08.277Z,17.77
2018-03-30T08:04:10.810Z,17.77
2018-03-30T08:05:13.305Z,17.76
2018-03-30T08:06:15.791Z,17.76
2018-03-30T08:07:18.292Z,17.76
2018-03-30T08:08:20.768Z,17.77
2018-03-30T08:09:23.258Z,17.77
2018-03-30T08:10:25.762Z,17.76
2018-03-30T08:11:28.278Z,17.78
2018-03-30T08:12:30.776Z,17.78
2018-03-30T08:13:33.288Z,17.79
2018-03-30T08:14:35.794Z,17.80
2018-03-30T08:15:38.278Z,17.83
2018-03-30T08:16:40.777Z,17.83
2018-03-30T08:17:43.287Z,17.85
2018-03-30T08:18:45.793Z,17.87
2018-03-30T08:19:48.279Z,17.88
2018-03-30T08:20:50.748Z,17.88
2018-03-30T08:21:53.249Z,17.88
2018-03-30T08:22:55.744Z,17.90
2018-03-30T08:23:58.238Z,17.92
2018-03-30T08:25:00.739Z,17.92
2018-03-30T08:26:03.245Z,17.92
2018-03-30T08:27:05.732Z,17.91
2018-03-30T08:28:08.221Z,17.90
2018-03-30T08:29:10.689Z,17.88
2018-03-30T08:30:13.161Z,17.90
2018-03-30T08:31:15.647Z,17.91
2018-03-30T08:32:18.130Z,17.91
2018-03-30T08:33:20.635Z,17.88
2018-03-30T08:34:23.112Z,17.88
2018-03-30T08:35:25.603Z,17.88
2018-03-30T08:36:28.149Z,17.90
2018-03-30T08:37:30.675Z,17.91
2018-03-30T08:38:33.196Z,17.93
2018-03-30T08:39:36.150Z,17.94
2018-03-30T08:40:38.782Z,17.95
2018-03-30T08:41:41.978Z,17.97
2018-03-30T08:42:44.509Z,17.97
2018-03-30T08:43:47.065Z,17.97
2018-03-30T08:44:49.840Z,17.97
2018-03-30T08:45:52.372Z,17.98
2018-03-30T08:46:56.226Z,18.00
2018-03-30T08:47:58.734Z,18.01
2018-03-30T08:49:01.927Z,18.02
2018-03-30T08:50:04.494Z,18.03
2018-03-30T08:51:09.070Z,18.04
2018-03-30T08:52:11.566Z,18.03
2018-03-30T08:53:14.178Z,18.03
2018-03-30T08:54:16.801Z,18.05
2018-03-30T08:55:19.436Z,18.06
2018-03-30T08:56:21.977Z,18.03
2018-03-30T08:57:24.493Z,18.03
2018-03-30T08:58:27.035Z,18.02
2018-03-30T08:59:29.556Z,18.02
2018-03-30T09:00:32.032Z,18.03
2018-03-30T09:01:34.542Z,18.02
2018-03-30T09:02:37.045Z,18.03
2018-03-30T09:03:39.689Z,18.05
2018-03-30T09:04:43.855Z,18.04
2018-03-30T09:05:46.390Z,18.03
2018-03-30T09:06:48.882Z,18.04
2018-03-30T09:07:51.395Z,18.04
2018-03-30T09:08:54.078Z,18.05
2018-03-30T09:09:56.832Z,18.07
2018-03-30T09:10:59.536Z,18.07
2018-03-30T09:12:02.022Z,18.08
2018-03-30T09:13:04.496Z,18.07
2018-03-30T09:14:06.997Z,18.06
2018-03-30T09:15:09.506Z,18.06
2018-03-30T09:16:11.995Z,18.06
2018-03-30T09:17:14.483Z,18.05
2018-03-30T09:18:17.018Z,18.08
2018-03-30T09:19:19.592Z,18.08
2018-03-30T09:20:22.187Z,18.08
2018-03-30T09:21:24.675Z,18.07
2018-03-30T09:22:27.747Z,18.09
2018-03-30T09:23:30.265Z,18.12
2018-03-30T09:24:32.769Z,18.16
2018-03-30T09:25:35.275Z,18.20
2018-03-30T09:26:37.773Z,18.23
2018-03-30T09:27:40.258Z,18.28
2018-03-30T09:28:42.732Z,18.33
2018-03-30T09:29:51.292Z,18.37
2018-03-30T09:30:54.438Z,18.50
2018-03-30T09:31:59.012Z,18.53
2018-03-30T09:33:03.326Z,18.56
2018-03-30T09:34:08.469Z,18.59
2018-03-30T09:35:11.510Z,18.61
2018-03-30T09:36:14.263Z,18.62
2018-03-30T09:37:16.853Z,18.69
2018-03-30T09:38:19.338Z,18.79
2018-03-30T09:39:21.833Z,18.87
2018-03-30T09:40:24.406Z,18.92
2018-03-30T09:41:26.913Z,18.97
2018-03-30T09:42:30.716Z,18.99
2018-03-30T09:43:33.712Z,19.00
2018-03-30T09:44:37.302Z,19.01
2018-03-30T09:45:39.878Z,19.01
2018-03-30T09:46:42.364Z,19.01
2018-03-30T09:47:44.861Z,19.01
2018-03-30T09:48:47.367Z,19.03
2018-03-30T09:49:49.863Z,19.06
2018-03-30T09:50:52.346Z,19.04
2018-03-30T09:51:54.837Z,19.02
2018-03-30T09:52:57.312Z,19.00
2018-03-30T09:53:59.806Z,18.98
2018-03-30T09:55:02.323Z,18.98
2018-03-30T09:56:04.814Z,18.99
2018-03-30T09:57:07.296Z,18.99
2018-03-30T09:58:09.810Z,18.99
2018-03-30T09:59:12.299Z,19.00
2018-03-30T10:00:14.779Z,19.00
2018-03-30T10:01:17.263Z,19.01
2018-03-30T10:02:19.748Z,19.01
2018-03-30T10:03:22.230Z,19.01
2018-03-30T10:04:28.566Z,19.01
2018-03-30T10:05:31.090Z,19.02
2018-03-30T10:06:33.650Z,19.03
2018-03-30T10:07:36.164Z,19.03
2018-03-30T10:08:38.678Z,19.03
2018-03-30T10:09:41.175Z,19.03
2018-03-30T10:10:43.640Z,19.04
2018-03-30T10:11:46.139Z,19.04
2018-03-30T10:12:48.654Z,19.05
2018-03-30T10:13:51.141Z,19.06
2018-03-30T10:14:53.636Z,19.06
2018-03-30T10:15:56.126Z,19.06
2018-03-30T10:16:58.628Z,19.06
2018-03-30T10:18:01.135Z,19.07
2018-03-30T10:19:03.623Z,19.07
2018-03-30T10:20:06.102Z,19.06
2018-03-30T10:21:08.607Z,19.05
2018-03-30T10:22:11.089Z,19.04
2018-03-30T10:23:13.594Z,19.02
2018-03-30T10:24:16.076Z,18.94
2018-03-30T10:25:18.547Z,18.90
2018-03-30T10:26:21.045Z,18.87
2018-03-30T10:27:23.542Z,18.84
2018-03-30T10:28:26.064Z,18.81
2018-03-30T10:29:28.528Z,18.77
2018-03-30T10:30:31.024Z,18.73
2018-03-30T10:31:33.525Z,18.70
2018-03-30T10:32:36.011Z,18.67
2018-03-30T10:33:38.514Z,18.66
2018-03-30T10:34:41.020Z,18.64
2018-03-30T10:35:43.524Z,18.63
2018-03-30T10:36:46.025Z,18.64
2018-03-30T10:37:48.591Z,18.63
2018-03-30T10:38:51.098Z,18.62
2018-03-30T10:39:54.027Z,18.63
2018-03-30T10:40:56.529Z,18.61
2018-03-30T10:41:59.531Z,18.59
2018-03-30T10:43:02.174Z,18.59
2018-03-30T10:44:04.707Z,18.59
2018-03-30T10:45:07.268Z,18.57
2018-03-30T10:46:10.002Z,18.57
2018-03-30T10:47:12.541Z,18.56
2018-03-30T10:48:15.053Z,18.56
2018-03-30T10:49:17.607Z,18.56
2018-03-30T10:50:20.130Z,18.56
2018-03-30T10:51:22.636Z,18.56
2018-03-30T10:52:25.463Z,18.57
2018-03-30T10:53:28.395Z,18.58
2018-03-30T10:54:31.487Z,18.56
2018-03-30T10:55:33.987Z,18.58
2018-03-30T10:56:36.456Z,18.57
2018-03-30T10:57:38.942Z,18.56
2018-03-30T10:58:41.435Z,18.56
2018-03-30T10:59:43.931Z,18.56
2018-03-30T11:00:46.415Z,18.55
2018-03-30T11:01:48.889Z,18.55
2018-03-30T11:02:51.361Z,18.56
2018-03-30T11:03:53.864Z,18.54
2018-03-30T11:04:56.388Z,18.54
2018-03-30T11:05:58.856Z,18.59
2018-03-30T11:07:01.365Z,18.62
2018-03-30T11:08:03.848Z,18.65
2018-03-30T11:09:06.372Z,18.69
2018-03-30T11:10:08.894Z,18.73
2018-03-30T11:11:11.455Z,18.76
2018-03-30T11:12:13.956Z,18.80
2018-03-30T11:13:16.452Z,18.83
2018-03-30T11:14:18.944Z,18.86
2018-03-30T11:15:21.461Z,18.87
2018-03-30T11:16:24.020Z,18.90
2018-03-30T11:17:26.503Z,18.93
2018-03-30T11:18:28.980Z,18.96
2018-03-30T11:19:31.506Z,18.99
2018-03-30T11:20:33.972Z,19.00
2018-03-30T11:21:36.460Z,19.03
2018-03-30T11:22:39.075Z,19.03
2018-03-30T11:23:41.578Z,19.05
2018-03-30T11:24:44.082Z,19.05
2018-03-30T11:25:46.677Z,19.06
2018-03-30T11:26:49.144Z,19.06
2018-03-30T11:27:51.624Z,19.07
2018-03-30T11:28:54.137Z,19.10
2018-03-30T11:29:56.669Z,19.11
2018-03-30T11:30:59.174Z,19.13
2018-03-30T11:32:01.679Z,19.13
2018-03-30T11:33:04.189Z,19.14
2018-03-30T11:34:06.665Z,19.15
2018-03-30T11:35:09.184Z,19.15
2018-03-30T11:36:11.665Z,19.15
2018-03-30T11:37:14.147Z,19.16
2018-03-30T11:38:16.672Z,19.17
2018-03-30T11:39:19.160Z,19.18
2018-03-30T11:40:21.692Z,19.19
2018-03-30T11:41:24.182Z,19.20
2018-03-30T11:42:26.690Z,19.20
2018-03-30T11:43:29.180Z,19.20
2018-03-30T11:44:31.670Z,19.21
2018-03-30T11:45:34.192Z,19.21
2018-03-30T11:46:37.635Z,19.21
2018-03-30T11:47:40.453Z,19.23
2018-03-30T11:48:42.961Z,19.22
2018-03-30T11:49:45.447Z,19.23
2018-03-30T11:50:47.955Z,19.24
2018-03-30T11:51:50.438Z,19.24
2018-03-30T11:52:52.938Z,19.24
2018-03-30T11:53:55.431Z,19.24
2018-03-30T11:54:57.930Z,19.24
2018-03-30T11:56:00.444Z,19.24
2018-03-30T11:57:02.941Z,19.24
2018-03-30T11:58:05.438Z,19.24
2018-03-30T11:59:07.934Z,19.25
2018-03-30T12:00:10.432Z,19.24
2018-03-30T12:01:12.943Z,19.24
2018-03-30T12:02:15.425Z,19.22
2018-03-30T12:03:17.911Z,19.20
2018-03-30T12:04:20.413Z,19.18
2018-03-30T12:05:22.892Z,19.16
2018-03-30T12:06:25.398Z,19.15
2018-03-30T12:07:27.891Z,19.12
2018-03-30T12:08:30.381Z,19.10
2018-03-30T12:09:32.974Z,19.08
2018-03-30T12:10:35.463Z,19.08
2018-03-30T12:11:37.951Z,19.06
2018-03-30T12:12:40.423Z,19.04
2018-03-30T12:13:42.907Z,19.03
2018-03-30T12:14:45.402Z,19.03
2018-03-30T12:15:47.903Z,19.02
2018-03-30T12:16:50.591Z,19.01
2018-03-30T12:17:53.105Z,19.01
2018-03-30T12:18:55.609Z,19.00
2018-03-30T12:19:58.092Z,18.99
2018-03-30T12:21:00.586Z,18.98
2018-03-30T12:22:03.109Z,18.98
2018-03-30T12:23:05.608Z,18.97
2018-03-30T12:24:08.111Z,18.97
2018-03-30T12:25:10.603Z,18.96
2018-03-30T12:26:13.080Z,18.96
2018-03-30T12:27:15.586Z,18.95
2018-03-30T12:28:18.108Z,18.94
2018-03-30T12:29:20.606Z,18.93
2018-03-30T12:30:23.098Z,18.93
2018-03-30T12:31:25.592Z,18.93
2018-03-30T12:32:28.220Z,18.91
2018-03-30T12:33:30.729Z,18.92
2018-03-30T12:34:33.227Z,18.91
2018-03-30T12:35:35.741Z,18.91
2018-03-30T12:36:38.253Z,18.90
2018-03-30T12:37:40.788Z,18.90
2018-03-30T12:38:43.299Z,18.89
2018-03-30T12:39:45.781Z,18.90
2018-03-30T12:40:48.324Z,18.89
2018-03-30T12:41:50.837Z,18.88
2018-03-30T12:42:53.338Z,18.88
2018-03-30T12:43:55.812Z,18.87
2018-03-30T12:44:58.340Z,18.86
2018-03-30T12:46:00.835Z,18.86
2018-03-30T12:47:03.319Z,18.85
2018-03-30T12:48:05.831Z,18.85
2018-03-30T12:49:08.333Z,18.85
2018-03-30T12:50:10.837Z,18.84
2018-03-30T12:51:13.351Z,18.84
2018-03-30T12:52:15.882Z,18.84
2018-03-30T12:53:18.400Z,18.83
2018-03-30T12:54:20.902Z,18.83
2018-03-30T12:55:23.390Z,18.82
2018-03-30T12:56:25.874Z,18.82
2018-03-30T12:57:28.352Z,18.82
2018-03-30T12:58:30.863Z,18.82
2018-03-30T12:59:33.336Z,18.82
2018-03-30T13:00:35.856Z,18.82
2018-03-30T13:01:38.365Z,18.82
2018-03-30T13:02:40.854Z,18.81
2018-03-30T13:03:43.363Z,18.81
2018-03-30T13:04:45.847Z,18.81
2018-03-30T13:05:48.346Z,18.81
2018-03-30T13:06:50.848Z,18.79
2018-03-30T13:07:53.321Z,18.80
2018-03-30T13:08:55.826Z,18.78
2018-03-30T13:09:58.324Z,18.78
2018-03-30T13:11:00.796Z,18.78
2018-03-30T13:12:03.280Z,18.77
2018-03-30T13:13:05.766Z,18.76
2018-03-30T13:14:08.263Z,18.76
2018-03-30T13:15:10.771Z,18.75
2018-03-30T13:16:13.309Z,18.76
2018-03-30T13:17:15.790Z,18.75
2018-03-30T13:18:18.298Z,18.76
2018-03-30T13:19:20.807Z,18.75
2018-03-30T13:20:23.352Z,18.75
2018-03-30T13:21:25.824Z,18.74
2018-03-30T13:22:28.333Z,18.74
2018-03-30T13:23:30.812Z,18.73
2018-03-30T13:24:33.308Z,18.73
2018-03-30T13:25:35.819Z,18.73